West Pointe A la Hache, Louisiana
Current Conditions -  °F | °C
As of 5:00 PM on Sunday 19 Oct 2014 (Local Time) from KAXO Reporting Station
Scattered Clouds Scattered Clouds  
Wind Chill: 79°   Ceiling: Unl
Heat Index: 81°   Visibility: 7mi
Dew Point: 68°   Wind: 14mph
Humidity: 69%   Direction: 70°ENE
Pressure: 30.05"   Gusts: NA
Location:  29.4927°N, 89.8165°W
Report Text: KAXO 192200Z 07012KT 7SM SCT030 26/20 A3005 RMK LAST
Loading
Personal Weather Stations






























Interactive Weather Map
Tropical Storm Tracking
New forecast layout! Learn more

10-Day Weather Forecast

Advertisements
Track Severe Weather on mobile